sensor_id;sensor_type;location;lat;lon;timestamp;P1;durP1;ratioP1;P2;durP2;ratioP2
16640;SDS011;8434;47.990;7.880;2022-08-19T00:01:37;12.57;;;11.37;;
16640;SDS011;8434;47.990;7.880;2022-08-19T00:04:23;12.00;;;10.80;;
16640;SDS011;8434;47.990;7.880;2022-08-19T00:07:09;11.83;;;10.83;;
16640;SDS011;8434;47.990;7.880;2022-08-19T00:09:54;12.33;;;11.13;;
16640;SDS011;8434;47.990;7.880;2022-08-19T00:12:39;12.23;;;11.13;;
16640;SDS011;8434;47.990;7.880;2022-08-19T00:15:25;14.30;;;12.40;;
16640;SDS011;8434;47.990;7.880;2022-08-19T00:18:11;12.90;;;11.60;;
16640;SDS011;8434;47.990;7.880;2022-08-19T00:20:56;14.63;;;13.27;;
16640;SDS011;8434;47.990;7.880;2022-08-19T00:23:43;14.50;;;13.00;;
16640;SDS011;8434;47.990;7.880;2022-08-19T00:26:28;14.83;;;13.43;;
16640;SDS011;8434;47.990;7.880;2022-08-19T00:29:14;14.97;;;13.57;;
16640;SDS011;8434;47.990;7.880;2022-08-19T00:32:01;15.07;;;13.47;;
16640;SDS011;8434;47.990;7.880;2022-08-19T00:34:46;14.37;;;12.90;;
16640;SDS011;8434;47.990;7.880;2022-08-19T00:37:31;15.30;;;13.90;;
16640;SDS011;8434;47.990;7.880;2022-08-19T00:40:17;14.47;;;13.07;;
16640;SDS011;8434;47.990;7.880;2022-08-19T00:43:07;14.80;;;13.40;;
16640;SDS011;8434;47.990;7.880;2022-08-19T00:45:52;14.53;;;13.13;;
16640;SDS011;8434;47.990;7.880;2022-08-19T00:48:38;14.40;;;13.10;;
16640;SDS011;8434;47.990;7.880;2022-08-19T00:51:24;14.03;;;12.43;;
16640;SDS011;8434;47.990;7.880;2022-08-19T00:54:10;13.93;;;12.57;;
16640;SDS011;8434;47.990;7.880;2022-08-19T00:56:55;15.90;;;14.20;;
16640;SDS011;8434;47.990;7.880;2022-08-19T00:59:44;15.60;;;14.07;;
16640;SDS011;8434;47.990;7.880;2022-08-19T01:02:30;15.37;;;13.77;;
16640;SDS011;8434;47.990;7.880;2022-08-19T01:05:20;15.40;;;13.80;;
16640;SDS011;8434;47.990;7.880;2022-08-19T01:08:06;15.10;;;13.70;;
16640;SDS011;8434;47.990;7.880;2022-08-19T01:10:52;15.80;;;14.30;;
16640;SDS011;8434;47.990;7.880;2022-08-19T01:13:37;16.73;;;13.93;;
16640;SDS011;8434;47.990;7.880;2022-08-19T01:16:24;16.00;;;14.40;;
16640;SDS011;8434;47.990;7.880;2022-08-19T01:19:10;15.40;;;13.80;;
16640;SDS011;8434;47.990;7.880;2022-08-19T01:21:59;14.93;;;13.47;;
16640;SDS011;8434;47.990;7.880;2022-08-19T01:24:47;16.50;;;14.90;;
16640;SDS011;8434;47.990;7.880;2022-08-19T01:27:37;20.67;;;15.00;;
16640;SDS011;8434;47.990;7.880;2022-08-19T01:30:23;15.87;;;14.20;;
16640;SDS011;8434;47.990;7.880;2022-08-19T01:33:09;15.73;;;14.23;;
16640;SDS011;8434;47.990;7.880;2022-08-19T01:35:54;15.80;;;14.07;;
16640;SDS011;8434;47.990;7.880;2022-08-19T01:38:48;15.77;;;14.17;;
16640;SDS011;8434;47.990;7.880;2022-08-19T01:41:34;18.50;;;16.03;;
16640;SDS011;8434;47.990;7.880;2022-08-19T01:44:20;17.63;;;15.83;;
16640;SDS011;8434;47.990;7.880;2022-08-19T01:47:07;17.70;;;15.57;;
16640;SDS011;8434;47.990;7.880;2022-08-19T01:49:53;16.67;;;14.97;;
16640;SDS011;8434;47.990;7.880;2022-08-19T01:52:39;16.13;;;14.50;;
16640;SDS011;8434;47.990;7.880;2022-08-19T01:55:24;18.37;;;15.33;;
16640;SDS011;8434;47.990;7.880;2022-08-19T01:58:12;17.13;;;15.43;;
16640;SDS011;8434;47.990;7.880;2022-08-19T02:03:47;18.30;;;15.63;;
16640;SDS011;8434;47.990;7.880;2022-08-19T02:06:32;18.00;;;16.10;;
16640;SDS011;8434;47.990;7.880;2022-08-19T02:09:17;17.30;;;15.60;;
16640;SDS011;8434;47.990;7.880;2022-08-19T02:12:02;16.77;;;15.07;;
16640;SDS011;8434;47.990;7.880;2022-08-19T02:14:49;16.93;;;15.33;;
16640;SDS011;8434;47.990;7.880;2022-08-19T02:17:34;17.17;;;15.47;;
16640;SDS011;8434;47.990;7.880;2022-08-19T02:20:19;16.43;;;14.70;;
16640;SDS011;8434;47.990;7.880;2022-08-19T02:23:04;15.60;;;14.10;;
16640;SDS011;8434;47.990;7.880;2022-08-19T02:25:50;17.17;;;15.47;;
16640;SDS011;8434;47.990;7.880;2022-08-19T02:28:36;17.27;;;15.47;;
16640;SDS011;8434;47.990;7.880;2022-08-19T02:31:23;17.30;;;15.63;;
16640;SDS011;8434;47.990;7.880;2022-08-19T02:34:08;17.03;;;15.20;;
16640;SDS011;8434;47.990;7.880;2022-08-19T02:36:53;17.83;;;16.03;;
16640;SDS011;8434;47.990;7.880;2022-08-19T02:39:38;17.40;;;15.70;;
16640;SDS011;8434;47.990;7.880;2022-08-19T02:42:22;16.97;;;15.23;;
16640;SDS011;8434;47.990;7.880;2022-08-19T02:45:08;17.83;;;16.03;;
16640;SDS011;8434;47.990;7.880;2022-08-19T02:47:55;16.93;;;15.23;;
16640;SDS011;8434;47.990;7.880;2022-08-19T02:50:40;16.47;;;14.77;;
16640;SDS011;8434;47.990;7.880;2022-08-19T02:53:26;16.97;;;15.07;;
16640;SDS011;8434;47.990;7.880;2022-08-19T02:56:11;17.97;;;16.13;;
16640;SDS011;8434;47.990;7.880;2022-08-19T02:58:56;17.87;;;16.17;;
16640;SDS011;8434;47.990;7.880;2022-08-19T03:01:42;17.17;;;15.47;;
16640;SDS011;8434;47.990;7.880;2022-08-19T03:04:28;17.83;;;16.03;;
16640;SDS011;8434;47.990;7.880;2022-08-19T03:07:14;19.07;;;16.07;;
16640;SDS011;8434;47.990;7.880;2022-08-19T03:09:59;19.20;;;16.97;;
16640;SDS011;8434;47.990;7.880;2022-08-19T03:12:44;18.73;;;16.83;;
16640;SDS011;8434;47.990;7.880;2022-08-19T03:15:29;19.83;;;17.77;;
16640;SDS011;8434;47.990;7.880;2022-08-19T03:18:14;21.10;;;18.67;;
16640;SDS011;8434;47.990;7.880;2022-08-19T03:21:01;20.53;;;17.80;;
16640;SDS011;8434;47.990;7.880;2022-08-19T03:23:46;19.33;;;17.33;;
16640;SDS011;8434;47.990;7.880;2022-08-19T03:26:32;19.77;;;17.67;;
16640;SDS011;8434;47.990;7.880;2022-08-19T03:29:20;18.53;;;16.63;;
16640;SDS011;8434;47.990;7.880;2022-08-19T03:32:05;19.13;;;17.13;;
16640;SDS011;8434;47.990;7.880;2022-08-19T03:34:50;19.07;;;17.10;;
16640;SDS011;8434;47.990;7.880;2022-08-19T03:37:37;20.47;;;18.27;;
16640;SDS011;8434;47.990;7.880;2022-08-19T03:40:22;19.67;;;17.20;;
16640;SDS011;8434;47.990;7.880;2022-08-19T03:43:07;21.93;;;17.57;;
16640;SDS011;8434;47.990;7.880;2022-08-19T03:45:59;20.00;;;17.23;;
16640;SDS011;8434;47.990;7.880;2022-08-19T03:48:44;20.53;;;17.17;;
16640;SDS011;8434;47.990;7.880;2022-08-19T03:51:29;19.23;;;17.13;;
16640;SDS011;8434;47.990;7.880;2022-08-19T03:54:18;17.90;;;16.17;;
16640;SDS011;8434;47.990;7.880;2022-08-19T03:57:03;17.90;;;15.07;;
16640;SDS011;8434;47.990;7.880;2022-08-19T03:59:48;19.27;;;16.40;;
16640;SDS011;8434;47.990;7.880;2022-08-19T04:02:33;20.97;;;16.93;;
16640;SDS011;8434;47.990;7.880;2022-08-19T04:05:18;19.27;;;17.23;;
16640;SDS011;8434;47.990;7.880;2022-08-19T04:08:03;19.60;;;17.50;;
16640;SDS011;8434;47.990;7.880;2022-08-19T04:10:50;18.30;;;16.23;;
16640;SDS011;8434;47.990;7.880;2022-08-19T04:13:35;16.93;;;15.30;;
16640;SDS011;8434;47.990;7.880;2022-08-19T04:16:21;17.63;;;15.93;;
16640;SDS011;8434;47.990;7.880;2022-08-19T04:19:06;18.70;;;16.97;;
16640;SDS011;8434;47.990;7.880;2022-08-19T04:21:52;19.00;;;16.97;;
16640;SDS011;8434;47.990;7.880;2022-08-19T04:24:38;18.67;;;16.80;;
16640;SDS011;8434;47.990;7.880;2022-08-19T04:27:24;18.17;;;16.23;;
16640;SDS011;8434;47.990;7.880;2022-08-19T04:30:10;17.83;;;15.97;;
16640;SDS011;8434;47.990;7.880;2022-08-19T04:32:56;20.60;;;18.07;;
16640;SDS011;8434;47.990;7.880;2022-08-19T04:35:42;20.60;;;18.60;;
16640;SDS011;8434;47.990;7.880;2022-08-19T04:38:28;19.90;;;17.77;;
16640;SDS011;8434;47.990;7.880;2022-08-19T04:41:13;18.87;;;17.07;;
16640;SDS011;8434;47.990;7.880;2022-08-19T04:44:17;19.53;;;17.50;;
16640;SDS011;8434;47.990;7.880;2022-08-19T04:47:03;22.17;;;19.80;;
16640;SDS011;8434;47.990;7.880;2022-08-19T04:49:50;21.17;;;18.77;;
16640;SDS011;8434;47.990;7.880;2022-08-19T04:52:34;21.07;;;18.97;;
16640;SDS011;8434;47.990;7.880;2022-08-19T04:55:19;21.43;;;19.13;;
16640;SDS011;8434;47.990;7.880;2022-08-19T04:58:04;24.03;;;18.70;;
16640;SDS011;8434;47.990;7.880;2022-08-19T05:00:51;21.07;;;17.43;;
16640;SDS011;8434;47.990;7.880;2022-08-19T05:03:36;20.50;;;18.30;;
16640;SDS011;8434;47.990;7.880;2022-08-19T05:06:24;20.90;;;17.83;;
16640;SDS011;8434;47.990;7.880;2022-08-19T05:09:09;20.40;;;17.73;;
16640;SDS011;8434;47.990;7.880;2022-08-19T05:11:54;19.80;;;17.70;;
16640;SDS011;8434;47.990;7.880;2022-08-19T05:14:39;21.03;;;18.83;;
16640;SDS011;8434;47.990;7.880;2022-08-19T05:17:25;22.73;;;18.97;;
16640;SDS011;8434;47.990;7.880;2022-08-19T05:20:10;20.90;;;18.80;;
16640;SDS011;8434;47.990;7.880;2022-08-19T05:23:13;21.03;;;18.77;;
16640;SDS011;8434;47.990;7.880;2022-08-19T05:25:59;19.90;;;17.47;;
16640;SDS011;8434;47.990;7.880;2022-08-19T05:28:43;21.40;;;18.87;;
16640;SDS011;8434;47.990;7.880;2022-08-19T05:31:29;21.83;;;19.53;;
16640;SDS011;8434;47.990;7.880;2022-08-19T05:34:15;22.20;;;19.90;;
16640;SDS011;8434;47.990;7.880;2022-08-19T05:37:01;23.47;;;21.00;;
16640;SDS011;8434;47.990;7.880;2022-08-19T05:39:48;22.80;;;20.33;;
16640;SDS011;8434;47.990;7.880;2022-08-19T05:42:33;23.13;;;20.80;;
16640;SDS011;8434;47.990;7.880;2022-08-19T05:45:19;21.63;;;19.43;;
16640;SDS011;8434;47.990;7.880;2022-08-19T05:48:03;22.10;;;19.90;;
16640;SDS011;8434;47.990;7.880;2022-08-19T05:50:50;22.87;;;20.47;;
16640;SDS011;8434;47.990;7.880;2022-08-19T05:53:35;21.30;;;19.10;;
16640;SDS011;8434;47.990;7.880;2022-08-19T05:56:20;20.00;;;18.03;;
16640;SDS011;8434;47.990;7.880;2022-08-19T05:59:05;20.07;;;18.17;;
16640;SDS011;8434;47.990;7.880;2022-08-19T06:01:56;19.53;;;17.63;;
16640;SDS011;8434;47.990;7.880;2022-08-19T06:04:40;20.53;;;18.47;;
16640;SDS011;8434;47.990;7.880;2022-08-19T06:07:28;19.70;;;17.60;;
16640;SDS011;8434;47.990;7.880;2022-08-19T06:10:13;18.87;;;17.07;;
16640;SDS011;8434;47.990;7.880;2022-08-19T06:12:58;18.60;;;16.80;;
16640;SDS011;8434;47.990;7.880;2022-08-19T06:15:43;17.63;;;15.83;;
16640;SDS011;8434;47.990;7.880;2022-08-19T06:18:29;17.57;;;15.77;;
16640;SDS011;8434;47.990;7.880;2022-08-19T06:21:14;17.30;;;15.70;;
16640;SDS011;8434;47.990;7.880;2022-08-19T06:24:01;17.30;;;15.60;;
16640;SDS011;8434;47.990;7.880;2022-08-19T06:26:47;18.63;;;16.83;;
16640;SDS011;8434;47.990;7.880;2022-08-19T06:29:32;17.93;;;16.20;;
16640;SDS011;8434;47.990;7.880;2022-08-19T06:32:17;18.13;;;16.33;;
16640;SDS011;8434;47.990;7.880;2022-08-19T06:35:03;19.27;;;17.23;;
16640;SDS011;8434;47.990;7.880;2022-08-19T06:37:48;18.37;;;16.47;;
16640;SDS011;8434;47.990;7.880;2022-08-19T06:40:34;18.70;;;16.80;;
16640;SDS011;8434;47.990;7.880;2022-08-19T06:43:22;18.47;;;16.53;;
16640;SDS011;8434;47.990;7.880;2022-08-19T06:46:12;18.07;;;16.30;;
16640;SDS011;8434;47.990;7.880;2022-08-19T06:48:57;18.40;;;16.60;;
16640;SDS011;8434;47.990;7.880;2022-08-19T06:51:43;18.03;;;15.83;;
16640;SDS011;8434;47.990;7.880;2022-08-19T06:54:28;16.43;;;14.93;;
16640;SDS011;8434;47.990;7.880;2022-08-19T06:57:14;16.73;;;15.10;;
16640;SDS011;8434;47.990;7.880;2022-08-19T07:00:00;17.57;;;15.87;;
16640;SDS011;8434;47.990;7.880;2022-08-19T07:02:45;16.07;;;14.37;;
16640;SDS011;8434;47.990;7.880;2022-08-19T07:05:30;17.13;;;15.13;;
16640;SDS011;8434;47.990;7.880;2022-08-19T07:08:15;16.30;;;14.80;;
16640;SDS011;8434;47.990;7.880;2022-08-19T07:11:00;16.40;;;14.77;;
16640;SDS011;8434;47.990;7.880;2022-08-19T07:13:46;15.37;;;13.97;;
16640;SDS011;8434;47.990;7.880;2022-08-19T07:16:32;15.57;;;13.97;;
16640;SDS011;8434;47.990;7.880;2022-08-19T07:19:17;14.52;;;13.18;;
16640;SDS011;8434;47.990;7.880;2022-08-19T07:22:03;15.87;;;14.27;;
16640;SDS011;8434;47.990;7.880;2022-08-19T07:24:49;16.33;;;14.73;;
16640;SDS011;8434;47.990;7.880;2022-08-19T07:27:34;15.97;;;14.37;;
16640;SDS011;8434;47.990;7.880;2022-08-19T07:30:22;17.45;;;15.30;;
16640;SDS011;8434;47.990;7.880;2022-08-19T07:33:07;15.47;;;14.07;;
16640;SDS011;8434;47.990;7.880;2022-08-19T07:35:52;16.60;;;15.00;;
16640;SDS011;8434;47.990;7.880;2022-08-19T07:38:39;15.88;;;14.38;;
16640;SDS011;8434;47.990;7.880;2022-08-19T07:41:25;15.73;;;14.25;;
16640;SDS011;8434;47.990;7.880;2022-08-19T07:44:12;15.87;;;14.27;;
16640;SDS011;8434;47.990;7.880;2022-08-19T07:46:58;16.90;;;15.35;;
16640;SDS011;8434;47.990;7.880;2022-08-19T07:49:43;16.13;;;14.60;;
16640;SDS011;8434;47.990;7.880;2022-08-19T07:52:28;18.30;;;16.50;;
16640;SDS011;8434;47.990;7.880;2022-08-19T07:55:13;19.00;;;17.20;;
16640;SDS011;8434;47.990;7.880;2022-08-19T07:57:58;18.47;;;16.67;;
16640;SDS011;8434;47.990;7.880;2022-08-19T08:00:43;20.17;;;18.07;;
16640;SDS011;8434;47.990;7.880;2022-08-19T08:03:30;20.83;;;18.30;;
16640;SDS011;8434;47.990;7.880;2022-08-19T08:06:33;21.97;;;19.37;;
16640;SDS011;8434;47.990;7.880;2022-08-19T08:09:37;22.55;;;20.25;;
16640;SDS011;8434;47.990;7.880;2022-08-19T08:12:23;22.47;;;20.17;;
16640;SDS011;8434;47.990;7.880;2022-08-19T08:15:12;22.53;;;20.23;;
16640;SDS011;8434;47.990;7.880;2022-08-19T08:17:59;24.00;;;21.37;;
16640;SDS011;8434;47.990;7.880;2022-08-19T08:20:45;21.90;;;19.53;;
16640;SDS011;8434;47.990;7.880;2022-08-19T08:23:30;20.97;;;18.97;;
16640;SDS011;8434;47.990;7.880;2022-08-19T08:26:15;21.87;;;19.57;;
16640;SDS011;8434;47.990;7.880;2022-08-19T08:29:01;22.70;;;20.20;;
16640;SDS011;8434;47.990;7.880;2022-08-19T08:31:46;22.27;;;20.00;;
16640;SDS011;8434;47.990;7.880;2022-08-19T08:34:31;22.67;;;20.27;;
16640;SDS011;8434;47.990;7.880;2022-08-19T08:37:18;23.40;;;20.87;;
16640;SDS011;8434;47.990;7.880;2022-08-19T08:40:03;22.93;;;20.53;;
16640;SDS011;8434;47.990;7.880;2022-08-19T08:42:51;23.47;;;21.07;;
16640;SDS011;8434;47.990;7.880;2022-08-19T08:45:41;26.70;;;24.07;;
16640;SDS011;8434;47.990;7.880;2022-08-19T08:48:30;27.33;;;24.43;;
16640;SDS011;8434;47.990;7.880;2022-08-19T08:51:18;29.80;;;25.50;;
16640;SDS011;8434;47.990;7.880;2022-08-19T08:54:10;28.30;;;25.40;;
16640;SDS011;8434;47.990;7.880;2022-08-19T08:57:11;28.30;;;25.40;;
16640;SDS011;8434;47.990;7.880;2022-08-19T08:59:57;28.33;;;25.30;;
16640;SDS011;8434;47.990;7.880;2022-08-19T09:02:46;27.40;;;24.60;;
16640;SDS011;8434;47.990;7.880;2022-08-19T09:05:34;26.43;;;23.63;;
16640;SDS011;8434;47.990;7.880;2022-08-19T09:08:22;27.30;;;24.60;;
16640;SDS011;8434;47.990;7.880;2022-08-19T09:11:19;25.57;;;23.07;;
16640;SDS011;8434;47.990;7.880;2022-08-19T09:14:08;26.30;;;23.70;;
16640;SDS011;8434;47.990;7.880;2022-08-19T09:16:56;25.77;;;23.27;;
16640;SDS011;8434;47.990;7.880;2022-08-19T09:19:47;25.47;;;22.87;;
16640;SDS011;8434;47.990;7.880;2022-08-19T09:22:33;26.80;;;24.03;;
16640;SDS011;8434;47.990;7.880;2022-08-19T09:25:19;26.17;;;23.10;;
16640;SDS011;8434;47.990;7.880;2022-08-19T09:28:06;25.67;;;23.27;;
16640;SDS011;8434;47.990;7.880;2022-08-19T09:30:52;25.35;;;22.85;;
16640;SDS011;8434;47.990;7.880;2022-08-19T09:33:37;25.95;;;23.15;;
16640;SDS011;8434;47.990;7.880;2022-08-19T09:36:22;24.57;;;21.77;;
16640;SDS011;8434;47.990;7.880;2022-08-19T09:39:08;24.10;;;21.58;;
16640;SDS011;8434;47.990;7.880;2022-08-19T09:41:53;24.90;;;22.42;;
16640;SDS011;8434;47.990;7.880;2022-08-19T09:44:39;24.48;;;22.10;;
16640;SDS011;8434;47.990;7.880;2022-08-19T09:47:24;24.27;;;21.70;;
16640;SDS011;8434;47.990;7.880;2022-08-19T09:50:10;24.15;;;21.63;;
16640;SDS011;8434;47.990;7.880;2022-08-19T09:52:56;22.88;;;20.50;;
16640;SDS011;8434;47.990;7.880;2022-08-19T09:55:41;22.73;;;20.55;;
16640;SDS011;8434;47.990;7.880;2022-08-19T09:58:26;23.33;;;21.02;;
16640;SDS011;8434;47.990;7.880;2022-08-19T10:01:17;22.20;;;19.92;;
16640;SDS011;8434;47.990;7.880;2022-08-19T10:04:02;23.98;;;21.58;;
16640;SDS011;8434;47.990;7.880;2022-08-19T10:06:55;23.15;;;20.80;;
16640;SDS011;8434;47.990;7.880;2022-08-19T10:09:40;22.17;;;18.98;;
16640;SDS011;8434;47.990;7.880;2022-08-19T10:12:25;20.88;;;18.80;;
16640;SDS011;8434;47.990;7.880;2022-08-19T10:15:10;19.58;;;17.88;;
16640;SDS011;8434;47.990;7.880;2022-08-19T10:17:56;20.20;;;18.40;;
16640;SDS011;8434;47.990;7.880;2022-08-19T10:20:42;20.25;;;18.20;;
16640;SDS011;8434;47.990;7.880;2022-08-19T10:23:27;21.80;;;19.70;;
16640;SDS011;8434;47.990;7.880;2022-08-19T10:26:14;22.40;;;20.23;;
16640;SDS011;8434;47.990;7.880;2022-08-19T10:28:59;23.02;;;20.65;;
16640;SDS011;8434;47.990;7.880;2022-08-19T10:31:45;21.50;;;19.50;;
16640;SDS011;8434;47.990;7.880;2022-08-19T10:34:33;22.42;;;20.10;;
16640;SDS011;8434;47.990;7.880;2022-08-19T10:37:19;24.00;;;21.75;;
16640;SDS011;8434;47.990;7.880;2022-08-19T10:40:05;22.10;;;20.10;;
16640;SDS011;8434;47.990;7.880;2022-08-19T10:42:51;23.83;;;21.52;;
16640;SDS011;8434;47.990;7.880;2022-08-19T10:45:36;22.95;;;20.50;;
16640;SDS011;8434;47.990;7.880;2022-08-19T10:48:21;22.92;;;20.65;;
16640;SDS011;8434;47.990;7.880;2022-08-19T10:51:07;23.33;;;20.83;;
16640;SDS011;8434;47.990;7.880;2022-08-19T10:54:10;24.08;;;21.63;;
16640;SDS011;8434;47.990;7.880;2022-08-19T10:56:55;22.98;;;20.17;;
16640;SDS011;8434;47.990;7.880;2022-08-19T10:59:39;23.95;;;21.52;;
16640;SDS011;8434;47.990;7.880;2022-08-19T11:02:24;22.75;;;20.35;;
16640;SDS011;8434;47.990;7.880;2022-08-19T11:05:09;23.10;;;20.67;;
16640;SDS011;8434;47.990;7.880;2022-08-19T11:07:57;22.08;;;19.98;;
16640;SDS011;8434;47.990;7.880;2022-08-19T11:10:42;24.13;;;21.83;;
16640;SDS011;8434;47.990;7.880;2022-08-19T11:13:28;21.15;;;19.08;;
16640;SDS011;8434;47.990;7.880;2022-08-19T11:16:14;23.40;;;21.00;;
16640;SDS011;8434;47.990;7.880;2022-08-19T11:19:00;23.30;;;21.10;;
16640;SDS011;8434;47.990;7.880;2022-08-19T11:21:46;21.02;;;19.00;;
16640;SDS011;8434;47.990;7.880;2022-08-19T11:24:33;19.67;;;17.67;;
16640;SDS011;8434;47.990;7.880;2022-08-19T11:27:17;19.70;;;17.77;;
16640;SDS011;8434;47.990;7.880;2022-08-19T11:30:03;21.08;;;19.13;;
16640;SDS011;8434;47.990;7.880;2022-08-19T11:32:48;22.23;;;20.13;;
16640;SDS011;8434;47.990;7.880;2022-08-19T11:35:33;22.55;;;20.55;;
16640;SDS011;8434;47.990;7.880;2022-08-19T11:38:18;21.48;;;19.45;;
16640;SDS011;8434;47.990;7.880;2022-08-19T11:41:06;21.40;;;19.30;;
16640;SDS011;8434;47.990;7.880;2022-08-19T11:43:51;21.00;;;19.00;;
16640;SDS011;8434;47.990;7.880;2022-08-19T11:46:38;24.60;;;21.92;;
16640;SDS011;8434;47.990;7.880;2022-08-19T11:49:23;22.73;;;20.45;;
16640;SDS011;8434;47.990;7.880;2022-08-19T11:52:08;23.67;;;21.27;;
16640;SDS011;8434;47.990;7.880;2022-08-19T11:54:54;26.08;;;23.45;;
16640;SDS011;8434;47.990;7.880;2022-08-19T11:57:40;25.38;;;22.80;;
16640;SDS011;8434;47.990;7.880;2022-08-19T12:00:27;26.95;;;24.05;;
16640;SDS011;8434;47.990;7.880;2022-08-19T12:03:12;26.33;;;23.67;;
16640;SDS011;8434;47.990;7.880;2022-08-19T12:05:57;31.10;;;27.58;;
16640;SDS011;8434;47.990;7.880;2022-08-19T12:08:42;29.55;;;26.45;;
16640;SDS011;8434;47.990;7.880;2022-08-19T12:11:28;27.83;;;24.88;;
16640;SDS011;8434;47.990;7.880;2022-08-19T12:14:14;27.45;;;24.60;;
16640;SDS011;8434;47.990;7.880;2022-08-19T12:17:00;25.15;;;22.45;;
16640;SDS011;8434;47.990;7.880;2022-08-19T12:19:45;23.10;;;20.75;;
16640;SDS011;8434;47.990;7.880;2022-08-19T12:22:30;22.05;;;19.95;;
16640;SDS011;8434;47.990;7.880;2022-08-19T12:25:15;20.20;;;18.15;;
16640;SDS011;8434;47.990;7.880;2022-08-19T12:28:00;20.83;;;18.88;;
16640;SDS011;8434;47.990;7.880;2022-08-19T12:30:47;19.65;;;17.70;;
16640;SDS011;8434;47.990;7.880;2022-08-19T12:33:33;18.88;;;17.25;;
16640;SDS011;8434;47.990;7.880;2022-08-19T12:36:18;20.98;;;19.08;;
16640;SDS011;8434;47.990;7.880;2022-08-19T12:39:03;20.73;;;18.65;;
16640;SDS011;8434;47.990;7.880;2022-08-19T12:41:49;21.00;;;19.10;;
16640;SDS011;8434;47.990;7.880;2022-08-19T12:44:33;18.52;;;16.83;;
16640;SDS011;8434;47.990;7.880;2022-08-19T12:47:20;20.83;;;18.73;;
16640;SDS011;8434;47.990;7.880;2022-08-19T12:50:05;17.55;;;15.85;;
16640;SDS011;8434;47.990;7.880;2022-08-19T12:52:52;16.52;;;14.93;;
16640;SDS011;8434;47.990;7.880;2022-08-19T12:55:37;14.52;;;13.23;;
16640;SDS011;8434;47.990;7.880;2022-08-19T12:58:22;16.40;;;14.90;;
16640;SDS011;8434;47.990;7.880;2022-08-19T13:01:08;14.40;;;12.93;;
16640;SDS011;8434;47.990;7.880;2022-08-19T13:03:55;15.07;;;13.75;;
16640;SDS011;8434;47.990;7.880;2022-08-19T13:06:40;14.98;;;13.68;;
16640;SDS011;8434;47.990;7.880;2022-08-19T13:09:25;17.02;;;15.52;;
16640;SDS011;8434;47.990;7.880;2022-08-19T13:12:10;15.13;;;13.82;;
16640;SDS011;8434;47.990;7.880;2022-08-19T13:14:56;15.90;;;13.95;;
16640;SDS011;8434;47.990;7.880;2022-08-19T13:17:41;14.40;;;13.13;;
16640;SDS011;8434;47.990;7.880;2022-08-19T13:20:28;16.17;;;14.68;;
16640;SDS011;8434;47.990;7.880;2022-08-19T13:23:13;16.60;;;15.20;;
16640;SDS011;8434;47.990;7.880;2022-08-19T13:25:58;18.48;;;14.73;;
16640;SDS011;8434;47.990;7.880;2022-08-19T13:28:44;15.35;;;14.05;;
16640;SDS011;8434;47.990;7.880;2022-08-19T13:31:47;15.73;;;14.32;;
16640;SDS011;8434;47.990;7.880;2022-08-19T13:34:50;16.75;;;14.65;;
16640;SDS011;8434;47.990;7.880;2022-08-19T13:37:36;15.75;;;14.45;;
16640;SDS011;8434;47.990;7.880;2022-08-19T13:40:30;14.85;;;13.65;;
16640;SDS011;8434;47.990;7.880;2022-08-19T13:43:17;17.38;;;12.80;;
16640;SDS011;8434;47.990;7.880;2022-08-19T13:46:07;14.25;;;12.77;;
16640;SDS011;8434;47.990;7.880;2022-08-19T13:48:53;14.05;;;12.80;;
16640;SDS011;8434;47.990;7.880;2022-08-19T13:51:39;14.10;;;12.90;;
16640;SDS011;8434;47.990;7.880;2022-08-19T13:54:25;15.70;;;13.93;;
16640;SDS011;8434;47.990;7.880;2022-08-19T13:57:12;14.50;;;13.27;;
16640;SDS011;8434;47.990;7.880;2022-08-19T13:59:57;14.68;;;13.48;;
16640;SDS011;8434;47.990;7.880;2022-08-19T14:02:43;13.13;;;12.02;;
16640;SDS011;8434;47.990;7.880;2022-08-19T14:05:29;13.25;;;12.15;;
16640;SDS011;8434;47.990;7.880;2022-08-19T14:08:15;13.80;;;12.57;;
16640;SDS011;8434;47.990;7.880;2022-08-19T14:11:01;13.35;;;12.10;;
16640;SDS011;8434;47.990;7.880;2022-08-19T14:13:46;12.85;;;11.75;;
16640;SDS011;8434;47.990;7.880;2022-08-19T14:16:32;11.52;;;10.63;;
16640;SDS011;8434;47.990;7.880;2022-08-19T14:19:17;12.23;;;11.07;;
16640;SDS011;8434;47.990;7.880;2022-08-19T14:22:03;12.20;;;11.00;;
16640;SDS011;8434;47.990;7.880;2022-08-19T14:24:49;11.50;;;10.50;;
16640;SDS011;8434;47.990;7.880;2022-08-19T14:27:35;10.93;;;10.00;;
16640;SDS011;8434;47.990;7.880;2022-08-19T14:30:22;10.88;;;10.07;;
16640;SDS011;8434;47.990;7.880;2022-08-19T14:33:08;11.65;;;10.48;;
16640;SDS011;8434;47.990;7.880;2022-08-19T14:35:53;10.93;;;10.02;;
16640;SDS011;8434;47.990;7.880;2022-08-19T14:38:38;11.48;;;10.43;;
16640;SDS011;8434;47.990;7.880;2022-08-19T14:41:23;11.75;;;10.77;;
16640;SDS011;8434;47.990;7.880;2022-08-19T14:44:11;12.18;;;11.13;;
16640;SDS011;8434;47.990;7.880;2022-08-19T14:46:57;12.75;;;11.63;;
16640;SDS011;8434;47.990;7.880;2022-08-19T14:49:42;13.45;;;12.25;;
16640;SDS011;8434;47.990;7.880;2022-08-19T14:52:27;13.80;;;12.60;;
16640;SDS011;8434;47.990;7.880;2022-08-19T14:55:12;12.80;;;11.70;;
16640;SDS011;8434;47.990;7.880;2022-08-19T14:57:58;12.05;;;11.05;;
16640;SDS011;8434;47.990;7.880;2022-08-19T15:00:44;13.40;;;12.10;;
16640;SDS011;8434;47.990;7.880;2022-08-19T15:03:29;11.65;;;10.70;;
16640;SDS011;8434;47.990;7.880;2022-08-19T15:06:15;11.32;;;10.30;;
16640;SDS011;8434;47.990;7.880;2022-08-19T15:09:00;12.73;;;11.63;;
16640;SDS011;8434;47.990;7.880;2022-08-19T15:11:46;12.30;;;11.30;;
16640;SDS011;8434;47.990;7.880;2022-08-19T15:14:35;11.55;;;10.55;;
16640;SDS011;8434;47.990;7.880;2022-08-19T15:17:22;12.60;;;11.45;;
16640;SDS011;8434;47.990;7.880;2022-08-19T15:20:08;13.32;;;12.10;;
16640;SDS011;8434;47.990;7.880;2022-08-19T15:22:53;12.73;;;11.45;;
16640;SDS011;8434;47.990;7.880;2022-08-19T15:25:38;12.98;;;11.88;;
16640;SDS011;8434;47.990;7.880;2022-08-19T15:28:25;13.07;;;11.98;;
16640;SDS011;8434;47.990;7.880;2022-08-19T15:31:10;12.65;;;11.60;;
16640;SDS011;8434;47.990;7.880;2022-08-19T15:33:57;11.85;;;10.85;;
16640;SDS011;8434;47.990;7.880;2022-08-19T15:36:42;12.25;;;11.10;;
16640;SDS011;8434;47.990;7.880;2022-08-19T15:39:27;13.20;;;12.00;;
16640;SDS011;8434;47.990;7.880;2022-08-19T15:42:12;13.30;;;12.07;;
16640;SDS011;8434;47.990;7.880;2022-08-19T15:44:57;12.13;;;11.02;;
16640;SDS011;8434;47.990;7.880;2022-08-19T15:47:42;12.07;;;11.07;;
16640;SDS011;8434;47.990;7.880;2022-08-19T15:50:29;12.55;;;11.38;;
16640;SDS011;8434;47.990;7.880;2022-08-19T15:53:15;11.18;;;10.27;;
16640;SDS011;8434;47.990;7.880;2022-08-19T15:56:00;11.27;;;10.27;;
16640;SDS011;8434;47.990;7.880;2022-08-19T15:58:45;11.70;;;10.73;;
16640;SDS011;8434;47.990;7.880;2022-08-19T16:01:49;11.85;;;10.85;;
16640;SDS011;8434;47.990;7.880;2022-08-19T16:04:52;11.35;;;10.20;;
16640;SDS011;8434;47.990;7.880;2022-08-19T16:07:56;11.25;;;10.32;;
16640;SDS011;8434;47.990;7.880;2022-08-19T16:10:41;11.48;;;10.43;;
16640;SDS011;8434;47.990;7.880;2022-08-19T16:13:26;12.00;;;11.00;;
16640;SDS011;8434;47.990;7.880;2022-08-19T16:16:11;10.80;;;9.95;;
16640;SDS011;8434;47.990;7.880;2022-08-19T16:18:57;12.13;;;11.05;;
16640;SDS011;8434;47.990;7.880;2022-08-19T16:21:43;12.00;;;11.05;;
16640;SDS011;8434;47.990;7.880;2022-08-19T16:24:30;11.55;;;10.65;;
16640;SDS011;8434;47.990;7.880;2022-08-19T16:27:16;10.82;;;9.93;;
16640;SDS011;8434;47.990;7.880;2022-08-19T16:30:01;11.25;;;9.75;;
16640;SDS011;8434;47.990;7.880;2022-08-19T16:32:46;10.38;;;9.38;;